createdAt,value
2022-10-07T00:00:52.784Z,9.31
2022-10-07T00:03:38.460Z,9.25
2022-10-07T00:06:24.035Z,9.22
2022-10-07T00:09:09.666Z,9.30
2022-10-07T00:11:59.620Z,9.15
2022-10-07T00:14:45.459Z,9.17
2022-10-07T00:17:31.018Z,9.29
2022-10-07T00:20:16.700Z,9.32
2022-10-07T00:23:02.610Z,9.15
2022-10-07T00:25:48.372Z,9.22
2022-10-07T00:28:34.736Z,9.23
2022-10-07T00:31:23.543Z,9.26
2022-10-07T00:34:11.936Z,9.18
2022-10-07T00:36:57.869Z,9.14
2022-10-07T00:39:43.633Z,9.05
2022-10-07T00:42:30.534Z,8.96
2022-10-07T00:45:19.281Z,9.00
2022-10-07T00:48:04.990Z,8.91
2022-10-07T00:50:53.832Z,8.78
2022-10-07T00:53:41.194Z,8.70
2022-10-07T00:56:29.354Z,8.68
2022-10-07T00:59:15.937Z,8.57
2022-10-07T01:02:01.719Z,8.47
2022-10-07T01:04:48.851Z,8.56
2022-10-07T01:07:39.015Z,8.43
2022-10-07T01:10:31.256Z,8.32
2022-10-07T01:13:27.199Z,8.44
2022-10-07T01:16:27.581Z,8.43
2022-10-07T01:19:47.022Z,8.48
2022-10-07T01:22:55.039Z,8.34
2022-10-07T01:25:57.413Z,8.55
2022-10-07T01:28:56.807Z,8.57
2022-10-07T01:31:50.516Z,8.33
2022-10-07T01:34:39.077Z,8.45
2022-10-07T01:37:27.442Z,8.42
2022-10-07T01:40:21.495Z,8.48
2022-10-07T01:43:08.039Z,8.42
2022-10-07T01:45:55.207Z,8.37
2022-10-07T01:48:40.759Z,8.42
2022-10-07T01:51:29.811Z,8.21
2022-10-07T01:54:36.450Z,8.17
2022-10-07T01:57:44.486Z,8.31
2022-10-07T02:00:31.209Z,8.22
2022-10-07T02:03:32.030Z,8.20
2022-10-07T02:06:32.772Z,8.23
2022-10-07T02:09:30.442Z,8.23
2022-10-07T02:12:27.196Z,8.33
2022-10-07T02:15:20.147Z,8.27
2022-10-07T02:18:12.467Z,8.15
2022-10-07T02:20:59.609Z,8.21
2022-10-07T02:23:46.819Z,8.09
2022-10-07T02:26:34.042Z,8.24
2022-10-07T02:29:22.128Z,8.18
2022-10-07T02:32:12.887Z,8.13
2022-10-07T02:35:04.735Z,8.12
2022-10-07T02:37:54.371Z,8.17
2022-10-07T02:40:58.529Z,8.22
2022-10-07T02:43:50.685Z,8.14
2022-10-07T02:46:43.074Z,8.08
2022-10-07T02:49:31.360Z,8.08
2022-10-07T02:52:19.643Z,8.11
2022-10-07T02:55:09.693Z,8.08
2022-10-07T02:58:00.372Z,8.04
2022-10-07T03:00:52.907Z,7.98
2022-10-07T03:03:39.933Z,8.03
2022-10-07T03:06:29.530Z,8.00
2022-10-07T03:09:15.547Z,7.93
2022-10-07T03:12:01.406Z,7.73
2022-10-07T03:14:49.834Z,7.87
2022-10-07T03:17:35.433Z,7.70
2022-10-07T03:20:21.242Z,7.73
2022-10-07T03:23:06.616Z,7.62
2022-10-07T03:25:53.985Z,7.62
2022-10-07T03:28:39.897Z,7.65
2022-10-07T03:31:26.169Z,7.65
2022-10-07T03:34:12.073Z,7.66
2022-10-07T03:36:58.125Z,7.67
2022-10-07T03:39:43.753Z,7.57
2022-10-07T03:42:29.313Z,7.76
2022-10-07T03:45:14.757Z,7.71
2022-10-07T03:48:00.210Z,7.57
2022-10-07T03:50:50.919Z,7.51
2022-10-07T03:53:38.856Z,7.53
2022-10-07T03:56:24.977Z,7.50
2022-10-07T03:59:10.472Z,7.45
2022-10-07T04:01:55.822Z,7.47
2022-10-07T04:04:41.558Z,7.46
2022-10-07T04:07:27.606Z,7.52
2022-10-07T04:10:15.222Z,7.43
2022-10-07T04:13:01.278Z,7.51
2022-10-07T04:15:46.963Z,7.55
2022-10-07T04:18:32.585Z,7.44
2022-10-07T04:21:17.981Z,7.47
2022-10-07T04:24:03.461Z,7.42
2022-10-07T04:26:50.242Z,7.38
2022-10-07T04:29:39.175Z,7.31
2022-10-07T04:32:25.158Z,7.35
2022-10-07T04:35:10.667Z,7.20
2022-10-07T04:37:58.182Z,7.28
2022-10-07T04:40:49.072Z,7.34
2022-10-07T04:43:34.513Z,7.21
2022-10-07T04:46:19.994Z,7.28
2022-10-07T04:49:05.447Z,7.29
2022-10-07T04:51:50.849Z,6.98
2022-10-07T04:54:36.485Z,7.11
2022-10-07T04:57:21.931Z,7.26
2022-10-07T05:00:09.103Z,7.27
2022-10-07T05:02:55.052Z,7.29
2022-10-07T05:05:42.394Z,7.25
2022-10-07T05:08:28.388Z,7.16
2022-10-07T05:11:14.185Z,7.23
2022-10-07T05:14:01.955Z,7.13
2022-10-07T05:16:52.883Z,7.22
2022-10-07T05:19:39.338Z,7.23
2022-10-07T05:22:25.036Z,7.26
2022-10-07T05:25:10.779Z,7.18
2022-10-07T05:27:56.518Z,7.28
2022-10-07T05:30:42.242Z,7.25
2022-10-07T05:33:27.561Z,7.29
2022-10-07T05:36:13.124Z,7.38
2022-10-07T05:38:58.801Z,7.28
2022-10-07T05:41:46.073Z,7.29
2022-10-07T05:44:32.348Z,7.27
2022-10-07T05:47:18.850Z,7.40
2022-10-07T05:50:05.805Z,7.38
2022-10-07T05:52:51.923Z,7.41
2022-10-07T05:55:40.260Z,7.48
2022-10-07T05:58:26.105Z,7.44
2022-10-07T06:01:16.983Z,7.62
2022-10-07T06:04:03.155Z,7.53
2022-10-07T06:06:48.670Z,7.51
2022-10-07T06:09:52.524Z,7.61
2022-10-07T06:12:58.613Z,7.74
2022-10-07T06:15:44.163Z,7.76
2022-10-07T06:18:30.082Z,7.84
2022-10-07T06:21:15.962Z,8.05
2022-10-07T06:24:01.653Z,8.30
2022-10-07T06:26:48.621Z,8.58
2022-10-07T06:29:34.244Z,8.75
2022-10-07T06:32:19.791Z,9.05
2022-10-07T06:35:05.683Z,9.32
2022-10-07T06:37:51.301Z,9.46
2022-10-07T06:40:36.881Z,9.77
2022-10-07T06:43:22.409Z,10.24
2022-10-07T06:46:10.343Z,10.28
2022-10-07T06:48:55.878Z,10.80
2022-10-07T06:51:41.603Z,11.14
2022-10-07T06:54:27.017Z,11.46
2022-10-07T06:57:40.209Z,11.93
2022-10-07T07:00:18.049Z,12.22
2022-10-07T07:03:03.609Z,12.61
2022-10-07T07:05:54.536Z,12.89
2022-10-07T07:08:45.928Z,13.27
2022-10-07T07:11:38.121Z,13.53
2022-10-07T07:14:25.118Z,14.03
2022-10-07T07:17:11.886Z,14.19
2022-10-07T07:20:00.394Z,14.47
2022-10-07T07:22:46.312Z,14.67
2022-10-07T07:25:35.304Z,15.08
2022-10-07T07:28:20.810Z,15.50
2022-10-07T07:31:11.006Z,16.03
2022-10-07T07:34:00.766Z,15.93
2022-10-07T07:36:52.197Z,16.11
2022-10-07T07:39:38.209Z,16.77
2022-10-07T07:42:24.001Z,16.60
2022-10-07T07:45:09.727Z,17.81
2022-10-07T07:47:55.667Z,18.25
2022-10-07T07:50:41.111Z,18.25
2022-10-07T07:53:26.887Z,18.59
2022-10-07T07:56:13.579Z,19.30
2022-10-07T07:59:00.798Z,19.45
2022-10-07T08:01:55.484Z,19.15
2022-10-07T08:04:41.017Z,19.26
2022-10-07T08:07:30.838Z,19.71
2022-10-07T08:10:18.959Z,20.47
2022-10-07T08:13:07.114Z,21.00
2022-10-07T08:16:02.204Z,21.18
2022-10-07T08:18:49.767Z,20.90
2022-10-07T08:21:35.572Z,20.99
2022-10-07T08:24:30.062Z,21.35
2022-10-07T08:27:15.693Z,22.90
2022-10-07T08:30:03.084Z,23.50
2022-10-07T08:32:49.196Z,23.90
2022-10-07T08:35:36.951Z,24.06
2022-10-07T08:38:29.017Z,25.15
2022-10-07T08:41:36.385Z,24.92
2022-10-07T08:44:37.830Z,24.74
2022-10-07T08:47:39.824Z,26.30
2022-10-07T08:50:32.698Z,26.03
2022-10-07T08:53:29.313Z,27.27
2022-10-07T08:56:18.464Z,26.36
2022-10-07T08:59:13.384Z,27.19
2022-10-07T09:02:03.012Z,28.42
2022-10-07T09:05:06.971Z,26.72
2022-10-07T09:07:58.509Z,25.91
2022-10-07T09:10:52.715Z,26.66
2022-10-07T09:13:47.814Z,27.15
2022-10-07T09:16:43.671Z,28.30
2022-10-07T09:19:36.705Z,27.45
2022-10-07T09:22:33.767Z,28.20
2022-10-07T09:25:25.586Z,29.52
2022-10-07T09:28:17.544Z,29.10
2022-10-07T09:31:04.249Z,27.83
2022-10-07T09:33:52.988Z,29.62
2022-10-07T09:37:19.611Z,29.13
2022-10-07T09:40:31.752Z,30.11
2022-10-07T09:43:19.387Z,28.16
2022-10-07T09:46:07.886Z,28.59
2022-10-07T09:48:55.833Z,29.03
2022-10-07T09:51:41.432Z,29.80
2022-10-07T09:54:27.891Z,27.74
2022-10-07T09:57:25.721Z,28.26
2022-10-07T10:00:14.731Z,28.89
2022-10-07T10:03:08.199Z,30.95
2022-10-07T10:05:59.580Z,30.70
2022-10-07T10:08:45.676Z,30.80
2022-10-07T10:11:31.609Z,29.67
2022-10-07T10:14:35.518Z,28.15
2022-10-07T10:17:32.158Z,28.93
2022-10-07T10:20:23.811Z,30.41
2022-10-07T10:23:33.030Z,30.30
2022-10-07T10:26:56.407Z,31.29
2022-10-07T10:29:56.625Z,31.62
2022-10-07T10:32:49.580Z,30.59
2022-10-07T10:36:06.289Z,30.23
2022-10-07T10:39:16.008Z,30.84
2022-10-07T10:42:08.133Z,31.25
2022-10-07T10:44:57.239Z,30.36
2022-10-07T10:48:01.032Z,29.86
2022-10-07T10:50:57.743Z,29.81
2022-10-07T10:54:04.643Z,28.47
2022-10-07T10:57:05.519Z,27.75
2022-10-07T11:00:14.018Z,28.42
2022-10-07T11:03:26.850Z,29.91
2022-10-07T11:06:19.166Z,29.44
2022-10-07T11:09:07.081Z,30.93
2022-10-07T11:11:54.100Z,33.54
2022-10-07T11:14:47.810Z,29.57
2022-10-07T11:17:37.473Z,29.84
2022-10-07T11:20:48.111Z,28.49
2022-10-07T11:24:14.677Z,28.51
2022-10-07T11:27:24.999Z,28.04
2022-10-07T11:30:23.507Z,30.01
2022-10-07T11:33:17.614Z,29.94
2022-10-07T11:36:32.954Z,31.83
2022-10-07T11:39:19.447Z,30.57
2022-10-07T11:42:13.125Z,30.38
2022-10-07T11:45:08.655Z,30.78
2022-10-07T11:48:02.956Z,29.07
2022-10-07T11:50:56.168Z,29.81
2022-10-07T11:53:44.670Z,30.21
2022-10-07T11:56:45.943Z,28.51
2022-10-07T11:59:48.493Z,30.62
2022-10-07T12:02:40.203Z,30.43
2022-10-07T12:05:49.306Z,30.34
2022-10-07T12:08:42.383Z,29.15
2022-10-07T12:11:37.178Z,29.15
2022-10-07T12:14:34.107Z,30.44
2022-10-07T12:17:24.318Z,32.10
2022-10-07T12:20:35.410Z,32.46
2022-10-07T12:23:29.874Z,30.19
2022-10-07T12:26:31.696Z,27.39
2022-10-07T12:29:32.601Z,25.08
2022-10-07T12:32:53.386Z,24.07
2022-10-07T12:35:48.779Z,25.73
2022-10-07T12:38:39.633Z,28.58
2022-10-07T12:41:38.823Z,30.19
2022-10-07T12:44:41.119Z,29.61
2022-10-07T12:47:30.297Z,28.90
2022-10-07T12:50:19.861Z,26.81
2022-10-07T12:53:06.907Z,26.42
2022-10-07T12:55:56.191Z,28.01
2022-10-07T12:59:03.572Z,29.97
2022-10-07T13:02:20.778Z,30.23
2022-10-07T13:05:28.448Z,27.71
2022-10-07T13:08:36.229Z,27.14
2022-10-07T13:11:47.699Z,26.17
2022-10-07T13:14:42.748Z,27.56
2022-10-07T13:17:41.286Z,27.25
2022-10-07T13:20:37.684Z,27.68
2022-10-07T13:23:27.543Z,28.90
2022-10-07T13:26:15.386Z,28.18
2022-10-07T13:29:01.702Z,28.81
2022-10-07T13:32:03.874Z,30.27
2022-10-07T13:34:52.493Z,30.91
2022-10-07T13:37:45.428Z,29.11
2022-10-07T13:40:35.457Z,28.93
2022-10-07T13:43:25.010Z,27.05
2022-10-07T13:46:11.819Z,28.12
2022-10-07T13:49:00.013Z,28.87
2022-10-07T13:51:45.958Z,28.43
2022-10-07T13:54:33.885Z,28.01
2022-10-07T13:57:21.534Z,27.38
2022-10-07T14:00:12.422Z,27.25
2022-10-07T14:02:59.498Z,25.72
2022-10-07T14:05:52.443Z,26.66
2022-10-07T14:08:51.367Z,28.06
2022-10-07T14:11:37.336Z,28.54
2022-10-07T14:14:32.887Z,27.42
2022-10-07T14:17:34.057Z,26.61
2022-10-07T14:20:44.029Z,28.20
2022-10-07T14:23:34.088Z,27.49
2022-10-07T14:26:20.366Z,28.59
2022-10-07T14:29:35.731Z,29.25
2022-10-07T14:32:40.571Z,28.90
2022-10-07T14:35:27.545Z,29.44
2022-10-07T14:38:20.948Z,27.67
2022-10-07T14:41:08.226Z,27.68
2022-10-07T14:43:53.895Z,26.74
2022-10-07T14:46:42.900Z,26.91
2022-10-07T14:49:33.133Z,27.36
2022-10-07T14:52:25.025Z,26.59
2022-10-07T14:55:33.558Z,26.75
2022-10-07T14:58:18.890Z,26.12
2022-10-07T15:01:06.619Z,24.85
2022-10-07T15:03:52.670Z,25.29
2022-10-07T15:06:38.522Z,26.54
2022-10-07T15:09:24.887Z,26.28
2022-10-07T15:12:13.660Z,24.11
2022-10-07T15:15:00.232Z,22.60
2022-10-07T15:17:46.195Z,21.67
2022-10-07T15:20:32.747Z,21.20
2022-10-07T15:23:18.371Z,20.96
2022-10-07T15:26:04.377Z,20.55
2022-10-07T15:28:55.110Z,20.39
2022-10-07T15:31:42.924Z,19.89
2022-10-07T15:34:28.499Z,19.70
2022-10-07T15:37:14.382Z,19.54
2022-10-07T15:39:59.568Z,19.31
2022-10-07T15:42:45.630Z,19.22
2022-10-07T15:45:31.429Z,18.75
2022-10-07T15:48:21.260Z,18.74
2022-10-07T15:51:08.306Z,18.45
2022-10-07T15:53:54.192Z,18.49
2022-10-07T15:56:39.786Z,18.48
2022-10-07T15:59:25.207Z,18.28
2022-10-07T16:02:16.962Z,18.13
2022-10-07T16:05:03.509Z,18.10
2022-10-07T16:07:49.348Z,17.77
2022-10-07T16:10:37.017Z,17.59
2022-10-07T16:13:23.126Z,17.36
2022-10-07T16:16:14.304Z,17.29
2022-10-07T16:19:00.967Z,16.93
2022-10-07T16:21:46.405Z,16.99
2022-10-07T16:24:35.236Z,16.85
2022-10-07T16:27:21.088Z,16.55
2022-10-07T16:30:25.451Z,16.40
2022-10-07T16:33:11.344Z,16.34
2022-10-07T16:35:57.170Z,15.90
2022-10-07T16:38:43.161Z,15.72
2022-10-07T16:41:29.195Z,15.57
2022-10-07T16:44:15.551Z,15.46
2022-10-07T16:47:01.852Z,15.17
2022-10-07T16:49:47.792Z,14.98
2022-10-07T16:52:34.304Z,14.94
2022-10-07T16:55:19.658Z,14.81
2022-10-07T16:58:04.875Z,14.66
2022-10-07T17:00:50.940Z,14.63
2022-10-07T17:03:37.837Z,14.35
2022-10-07T17:06:25.744Z,14.43
2022-10-07T17:09:13.680Z,14.30
2022-10-07T17:11:59.533Z,14.27
2022-10-07T17:14:45.603Z,13.99
2022-10-07T17:17:31.158Z,13.96
2022-10-07T17:20:16.779Z,13.99
2022-10-07T17:23:04.060Z,13.78
2022-10-07T17:25:49.687Z,13.78
2022-10-07T17:28:36.002Z,13.71
2022-10-07T17:31:21.755Z,13.48
2022-10-07T17:34:07.499Z,13.46
2022-10-07T17:36:54.081Z,13.54
2022-10-07T17:39:39.500Z,13.48
2022-10-07T17:42:25.469Z,13.43
2022-10-07T17:45:12.235Z,13.56
2022-10-07T17:47:57.833Z,13.40
2022-10-07T17:50:43.699Z,13.35
2022-10-07T17:53:33.717Z,13.22
2022-10-07T17:56:19.963Z,13.09
2022-10-07T17:59:05.693Z,12.98
2022-10-07T18:01:51.248Z,12.81
2022-10-07T18:04:37.161Z,12.68
2022-10-07T18:07:23.031Z,12.72
2022-10-07T18:10:08.995Z,12.69
2022-10-07T18:13:12.840Z,12.51
2022-10-07T18:16:03.488Z,12.48
2022-10-07T18:18:57.107Z,12.23
2022-10-07T18:21:47.953Z,12.49
2022-10-07T18:24:33.875Z,12.61
2022-10-07T18:27:26.915Z,12.53
2022-10-07T18:30:12.695Z,12.35
2022-10-07T18:32:58.401Z,12.41
2022-10-07T18:35:44.058Z,12.39
2022-10-07T18:38:33.834Z,12.42
2022-10-07T18:41:20.222Z,12.47
2022-10-07T18:44:06.161Z,12.30
2022-10-07T18:46:51.932Z,12.21
2022-10-07T18:49:37.556Z,12.10
2022-10-07T18:52:23.067Z,12.31
2022-10-07T18:55:09.102Z,12.05
2022-10-07T18:57:54.865Z,12.18
2022-10-07T19:00:42.041Z,12.04
2022-10-07T19:03:28.740Z,12.18
2022-10-07T19:06:15.830Z,12.25
2022-10-07T19:09:07.704Z,12.24
2022-10-07T19:11:53.553Z,12.12
2022-10-07T19:14:39.006Z,12.02
2022-10-07T19:17:24.601Z,12.03
2022-10-07T19:20:11.167Z,12.04
2022-10-07T19:22:57.973Z,11.83
2022-10-07T19:25:47.074Z,11.65
2022-10-07T19:28:35.884Z,11.69
2022-10-07T19:31:35.884Z,11.75
2022-10-07T19:34:22.113Z,11.73
2022-10-07T19:37:07.903Z,11.74
2022-10-07T19:39:53.616Z,11.57
2022-10-07T19:42:39.085Z,11.49
2022-10-07T19:45:24.703Z,11.37
2022-10-07T19:48:14.344Z,11.57
2022-10-07T19:51:02.606Z,11.63
2022-10-07T19:53:48.470Z,11.43
2022-10-07T19:56:37.483Z,11.57
2022-10-07T19:59:23.895Z,11.23
2022-10-07T20:02:11.347Z,11.42
2022-10-07T20:04:57.345Z,11.39
2022-10-07T20:07:43.095Z,11.22
2022-10-07T20:10:29.052Z,11.14
2022-10-07T20:13:15.465Z,11.25
2022-10-07T20:16:16.754Z,11.14
2022-10-07T20:19:08.216Z,11.06
2022-10-07T20:21:54.326Z,11.04
2022-10-07T20:24:40.268Z,11.08
2022-10-07T20:27:26.261Z,11.18
2022-10-07T20:30:17.810Z,11.05
2022-10-07T20:33:03.565Z,11.10
2022-10-07T20:35:49.106Z,11.12
2022-10-07T20:38:54.141Z,11.16
2022-10-07T20:41:58.819Z,11.06
2022-10-07T20:44:46.305Z,11.10
2022-10-07T20:47:35.642Z,10.94
2022-10-07T20:50:21.537Z,10.93
2022-10-07T20:53:07.453Z,10.93
2022-10-07T20:55:53.363Z,10.92
2022-10-07T20:58:39.285Z,10.86
2022-10-07T21:01:26.249Z,10.88
2022-10-07T21:04:16.137Z,10.84
2022-10-07T21:07:03.005Z,10.67
2022-10-07T21:09:49.914Z,10.61
2022-10-07T21:12:36.824Z,10.62
2022-10-07T21:15:22.733Z,10.73
2022-10-07T21:18:10.648Z,10.62
2022-10-07T21:20:57.147Z,10.56
2022-10-07T21:23:44.469Z,10.57
2022-10-07T21:26:30.071Z,10.73
2022-10-07T21:29:16.119Z,10.67
2022-10-07T21:32:02.240Z,10.62
2022-10-07T21:34:48.007Z,10.64
2022-10-07T21:37:35.026Z,10.70
2022-10-07T21:40:21.475Z,10.67
2022-10-07T21:43:08.853Z,10.66
2022-10-07T21:45:58.952Z,10.53
2022-10-07T21:48:45.662Z,10.48
2022-10-07T21:51:32.321Z,10.34
2022-10-07T21:54:20.489Z,10.29
2022-10-07T21:57:08.396Z,10.33
2022-10-07T21:59:54.312Z,10.33
2022-10-07T22:02:40.667Z,10.29
2022-10-07T22:05:27.137Z,10.18
2022-10-07T22:08:35.157Z,10.21
2022-10-07T22:11:22.936Z,10.19
2022-10-07T22:14:12.497Z,10.33
2022-10-07T22:16:59.736Z,10.29
2022-10-07T22:19:46.685Z,10.12
2022-10-07T22:22:32.597Z,10.20
2022-10-07T22:25:18.319Z,10.07
2022-10-07T22:28:03.862Z,10.03
2022-10-07T22:30:50.417Z,10.03
2022-10-07T22:33:38.232Z,10.05
2022-10-07T22:36:25.158Z,9.94
2022-10-07T22:39:12.027Z,9.92
2022-10-07T22:41:58.966Z,9.94
2022-10-07T22:44:44.872Z,9.98
2022-10-07T22:47:30.581Z,9.91
2022-10-07T22:50:17.600Z,9.84
2022-10-07T22:53:04.611Z,9.86
2022-10-07T22:55:50.162Z,9.93
2022-10-07T22:58:36.386Z,9.80
2022-10-07T23:01:24.345Z,9.77
2022-10-07T23:04:11.251Z,9.72
2022-10-07T23:06:59.174Z,9.71
2022-10-07T23:09:45.072Z,9.81
2022-10-07T23:12:31.981Z,9.83
2022-10-07T23:15:20.894Z,9.86
2022-10-07T23:18:06.803Z,9.79
2022-10-07T23:21:07.739Z,9.77
2022-10-07T23:24:06.920Z,9.73
2022-10-07T23:26:53.669Z,9.57
2022-10-07T23:29:40.429Z,9.60
2022-10-07T23:32:26.467Z,9.59
2022-10-07T23:35:12.502Z,9.49
2022-10-07T23:38:00.401Z,9.48
2022-10-07T23:40:47.910Z,9.54
2022-10-07T23:43:34.986Z,9.44
2022-10-07T23:46:23.938Z,9.44
2022-10-07T23:49:11.778Z,9.36
2022-10-07T23:51:58.685Z,9.45
2022-10-07T23:54:47.632Z,9.23
2022-10-07T23:57:33.562Z,9.21
